Time;durP1;ratioP1;P1;durP2;ratioP2;P2;SDS_P1;SDS_P2;PMS_P1;PMS_P2;Temp;Humidity;BMP_temperature;BMP_pressure;BME280_temperature;BME280_humidity;BME280_pressure;Samples;Min_cycle;Max_cycle;Signal;HPM_P1;HPM_P2
2022/04/09 00:00:40;;;;;;;;;;;4.40;99.90;;;;;;5050051;28;19966;-71
2022/04/09 00:03:07;;;;;;;;;;;4.50;99.90;;;;;;5048138;28;20402;-72
2022/04/09 00:05:33;;;;;;;;;;;4.40;99.90;;;;;;5049670;28;19946;-71
2022/04/09 00:08:00;;;;;;;;;;;4.40;99.90;;;;;;5049509;28;20074;-71
2022/04/09 00:10:26;;;;;;;;;;;4.40;99.90;;;;;;5051660;28;19944;-70
2022/04/09 00:12:53;;;;;;;;;;;4.40;99.90;;;;;;5054717;28;19955;-72
2022/04/09 00:15:20;;;;;;;;;;;4.40;99.90;;;;;;5048865;28;19942;-70
2022/04/09 00:17:48;;;;;;;;;;;4.50;99.90;;;;;;5059062;28;19948;-70
2022/04/09 00:20:16;;;;;;;;;;;4.60;99.90;;;;;;5049098;28;19999;-71
2022/04/09 00:22:42;;;;;;;;;;;4.70;99.90;;;;;;5049474;28;20006;-70
2022/04/09 00:25:09;;;;;;;;;;;4.70;99.90;;;;;;5053597;28;20006;-72
2022/04/09 00:27:36;;;;;;;;;;;4.80;99.90;;;;;;5056518;28;19949;-71
2022/04/09 00:30:03;;;;;;;;;;;4.80;99.90;;;;;;5048957;28;20846;-70
2022/04/09 00:32:30;;;;;;;;;;;4.70;99.90;;;;;;5055572;28;19960;-71
2022/04/09 00:34:58;;;;;;;;;;;4.70;99.90;;;;;;5052075;28;20436;-71
2022/04/09 00:37:25;;;;;;;;;;;4.70;99.90;;;;;;5054119;28;19949;-71
2022/04/09 00:39:51;;;;;;;;;;;4.70;99.90;;;;;;5059550;28;20532;-71
2022/04/09 00:42:18;;;;;;;;;;;4.70;99.90;;;;;;5049609;28;20326;-70
2022/04/09 00:44:45;;;;;;;;;;;4.70;99.90;;;;;;5048360;28;20460;-71
2022/04/09 00:47:12;;;;;;;;;;;4.80;99.90;;;;;;5045262;28;19944;-70
2022/04/09 00:49:40;;;;;;;;;;;4.80;99.90;;;;;;5049009;28;19942;-70
2022/04/09 00:52:09;;;;;;;;;;;4.90;99.90;;;;;;5052350;28;20428;-71
2022/04/09 00:54:36;;;;;;;;;;;5.00;99.90;;;;;;5050940;28;19938;-70
2022/04/09 00:57:05;;;;;;;;;;;4.90;99.90;;;;;;5049106;28;20406;-70
2022/04/09 00:59:32;;;;;;;;;;;4.80;99.90;;;;;;5047180;28;20590;-70
2022/04/09 01:01:58;;;;;;;;;;;4.70;99.90;;;;;;5051160;28;19958;-71
2022/04/09 01:04:25;;;;;;;;;;;4.60;99.90;;;;;;5048605;28;20663;-70
2022/04/09 01:06:52;;;;;;;;;;;4.60;99.90;;;;;;5049040;28;20000;-70
2022/04/09 01:09:20;;;;;;;;;;;4.60;99.90;;;;;;5049117;28;19947;-70
2022/04/09 01:11:46;;;;;;;;;;;4.50;99.90;;;;;;5049539;28;20388;-70
2022/04/09 01:14:13;;;;;;;;;;;4.50;99.90;;;;;;5054240;28;19941;-70
2022/04/09 01:16:40;;;;;;;;;;;4.50;99.90;;;;;;5052359;28;20480;-70
2022/04/09 01:19:07;;;;;;;;;;;4.40;99.90;;;;;;5049198;28;19950;-70
2022/04/09 01:21:33;;;;;;;;;;;4.40;99.90;;;;;;5048687;28;19969;-69
2022/04/09 01:24:01;;;;;;;;;;;4.40;99.90;;;;;;5048178;28;19967;-69
2022/04/09 01:26:28;;;;;;;;;;;4.30;99.90;;;;;;5047850;28;19969;-71
2022/04/09 01:28:54;;;;;;;;;;;4.20;99.90;;;;;;5051429;28;19942;-70
2022/04/09 01:31:21;;;;;;;;;;;4.10;99.90;;;;;;5055541;28;19964;-70
2022/04/09 01:33:47;;;;;;;;;;;4.20;99.90;;;;;;5050027;28;20402;-70
2022/04/09 01:36:14;;;;;;;;;;;4.20;99.90;;;;;;5048084;28;19980;-70
2022/04/09 01:38:41;;;;;;;;;;;4.20;99.90;;;;;;5048042;28;20612;-70
2022/04/09 01:41:09;;;;;;;;;;;4.30;99.90;;;;;;5048015;28;19968;-72
2022/04/09 01:43:38;;;;;;;;;;;4.40;99.90;;;;;;5056781;28;20019;-70
2022/04/09 01:46:04;;;;;;;;;;;4.40;99.90;;;;;;5041161;28;19957;-70
2022/04/09 01:48:31;;;;;;;;;;;4.30;99.90;;;;;;5049271;28;19944;-70
2022/04/09 01:50:57;;;;;;;;;;;4.30;99.90;;;;;;5047189;28;20044;-70
2022/04/09 01:53:24;;;;;;;;;;;4.30;99.90;;;;;;5048542;28;19949;-70
2022/04/09 01:55:50;;;;;;;;;;;4.30;99.90;;;;;;5048468;28;20008;-70
2022/04/09 01:58:20;;;;;;;;;;;4.20;99.90;;;;;;5047990;28;20293;-70
2022/04/09 02:00:47;;;;;;;;;;;4.20;99.90;;;;;;5047657;28;19959;-70
2022/04/09 02:03:13;;;;;;;;;;;4.20;99.90;;;;;;5064817;28;19946;-71
2022/04/09 02:05:40;;;;;;;;;;;4.10;99.90;;;;;;5051887;28;20402;-70
2022/04/09 02:08:07;;;;;;;;;;;4.20;99.90;;;;;;5049893;28;19945;-69
2022/04/09 02:10:34;;;;;;;;;;;4.30;99.90;;;;;;5057931;28;20036;-71
2022/04/09 02:13:01;;;;;;;;;;;4.30;99.90;;;;;;5047325;28;19945;-70
2022/04/09 02:15:29;;;;;;;;;;;4.40;99.90;;;;;;5050219;28;19995;-70
2022/04/09 02:17:56;;;;;;;;;;;4.40;99.90;;;;;;5051673;28;19992;-70
2022/04/09 02:20:22;;;;;;;;;;;4.50;99.90;;;;;;5055645;28;20370;-71
2022/04/09 02:22:49;;;;;;;;;;;4.50;99.90;;;;;;5050006;28;19947;-70
2022/04/09 02:25:16;;;;;;;;;;;4.60;99.90;;;;;;5052970;28;20446;-70
2022/04/09 02:27:43;;;;;;;;;;;4.60;99.90;;;;;;5051166;28;19952;-71
2022/04/09 02:30:10;;;;;;;;;;;4.60;99.90;;;;;;5050692;28;19971;-70
2022/04/09 02:32:43;;;;;;;;;;;4.60;99.90;;;;;;5048185;28;19998;-71
2022/04/09 02:35:10;;;;;;;;;;;4.50;99.90;;;;;;5050071;28;20024;-71
2022/04/09 02:37:37;;;;;;;;;;;4.40;99.90;;;;;;5051668;28;19990;-71
2022/04/09 02:40:04;;;;;;;;;;;4.30;99.90;;;;;;5051639;28;19945;-71
2022/04/09 02:42:30;;;;;;;;;;;4.30;99.90;;;;;;5049752;28;19968;-71
2022/04/09 02:44:57;;;;;;;;;;;4.30;99.90;;;;;;5052614;28;20055;-70
2022/04/09 02:47:23;;;;;;;;;;;4.30;99.90;;;;;;5051665;28;19972;-70
2022/04/09 02:49:51;;;;;;;;;;;4.30;99.90;;;;;;5050768;28;19942;-71
2022/04/09 02:52:18;;;;;;;;;;;4.30;99.90;;;;;;5049363;28;20016;-71
2022/04/09 02:54:44;;;;;;;;;;;4.30;99.90;;;;;;5051845;28;19950;-71
2022/04/09 02:57:11;;;;;;;;;;;4.30;99.90;;;;;;5056359;28;19944;-71
2022/04/09 02:59:37;;;;;;;;;;;4.30;99.90;;;;;;5057680;28;20007;-71
2022/04/09 03:02:04;;;;;;;;;;;4.30;99.90;;;;;;5050871;28;19968;-71
2022/04/09 03:04:30;;;;;;;;;;;4.20;99.90;;;;;;5050570;28;19962;-70
2022/04/09 03:06:58;;;;;;;;;;;4.20;99.90;;;;;;5052570;28;19937;-71
2022/04/09 03:09:25;;;;;;;;;;;4.20;99.90;;;;;;5062467;28;19946;-70
2022/04/09 03:11:51;;;;;;;;;;;4.10;99.90;;;;;;5052021;28;20051;-70
2022/04/09 03:14:18;;;;;;;;;;;4.10;99.90;;;;;;5057099;28;20031;-71
2022/04/09 03:16:44;;;;;;;;;;;4.10;99.90;;;;;;5052077;28;20581;-71
2022/04/09 03:19:11;;;;;;;;;;;4.20;99.90;;;;;;5054848;28;19956;-71
2022/04/09 03:21:37;;;;;;;;;;;4.30;99.90;;;;;;5051930;28;19996;-70
2022/04/09 03:24:06;;;;;;;;;;;4.40;99.90;;;;;;5048153;28;20018;-70
2022/04/09 03:26:32;;;;;;;;;;;4.50;99.90;;;;;;5050112;28;19949;-70
2022/04/09 03:28:59;;;;;;;;;;;4.50;99.90;;;;;;5050878;28;19942;-71
2022/04/09 03:31:25;;;;;;;;;;;4.50;99.90;;;;;;5050147;28;19964;-71
2022/04/09 03:33:52;;;;;;;;;;;4.50;99.90;;;;;;5068542;28;19952;-71
2022/04/09 03:36:19;;;;;;;;;;;4.50;99.90;;;;;;5050232;28;20005;-71
2022/04/09 03:38:46;;;;;;;;;;;4.50;99.90;;;;;;5051036;28;19959;-71
2022/04/09 03:41:13;;;;;;;;;;;4.50;99.90;;;;;;5049812;28;20006;-70
2022/04/09 03:43:40;;;;;;;;;;;4.50;99.90;;;;;;5055435;28;19948;-71
2022/04/09 03:46:07;;;;;;;;;;;4.50;99.90;;;;;;5052132;28;19942;-69
2022/04/09 03:48:33;;;;;;;;;;;4.50;99.90;;;;;;5050529;28;19954;-70
2022/04/09 03:51:00;;;;;;;;;;;4.60;99.90;;;;;;5049922;28;19965;-70
2022/04/09 03:53:26;;;;;;;;;;;4.70;99.90;;;;;;5050325;28;19951;-69
2022/04/09 03:55:53;;;;;;;;;;;4.70;99.90;;;;;;5050129;28;19977;-71
2022/04/09 03:58:22;;;;;;;;;;;4.70;99.90;;;;;;5050246;28;20508;-71
2022/04/09 04:00:48;;;;;;;;;;;4.70;99.90;;;;;;5050323;28;19956;-71
2022/04/09 04:03:15;;;;;;;;;;;4.70;99.90;;;;;;5050045;28;19984;-70
2022/04/09 04:05:41;;;;;;;;;;;4.80;99.90;;;;;;5033788;28;19974;-70
2022/04/09 04:08:08;;;;;;;;;;;4.80;99.90;;;;;;5048357;28;19953;-69
2022/04/09 04:10:37;;;;;;;;;;;4.80;99.90;;;;;;5051146;28;19957;-69
2022/04/09 04:13:03;;;;;;;;;;;4.80;99.90;;;;;;5058357;28;19973;-69
2022/04/09 04:15:31;;;;;;;;;;;4.80;99.90;;;;;;5057096;28;19957;-69
2022/04/09 04:17:58;;;;;;;;;;;4.80;99.90;;;;;;5043394;28;19947;-69
2022/04/09 04:20:24;;;;;;;;;;;4.80;99.90;;;;;;5053957;28;20449;-69
2022/04/09 04:22:52;;;;;;;;;;;4.90;99.90;;;;;;5050336;28;19977;-70
2022/04/09 04:25:19;;;;;;;;;;;4.80;99.90;;;;;;5049860;28;20060;-70
2022/04/09 04:27:46;;;;;;;;;;;4.80;99.90;;;;;;5049776;28;19979;-70
2022/04/09 04:30:13;;;;;;;;;;;4.80;99.90;;;;;;5049607;28;20041;-70
2022/04/09 04:32:42;;;;;;;;;;;4.80;99.90;;;;;;5064680;28;20015;-69
2022/04/09 04:35:09;;;;;;;;;;;4.80;99.90;;;;;;5049036;28;19970;-70
2022/04/09 04:37:38;;;;;;;;;;;4.90;99.90;;;;;;5056161;28;19953;-70
2022/04/09 04:40:06;;;;;;;;;;;4.90;99.90;;;;;;5054988;28;19953;-70
2022/04/09 04:42:32;;;;;;;;;;;4.90;99.90;;;;;;5048159;28;20063;-69
2022/04/09 04:44:59;;;;;;;;;;;4.90;99.90;;;;;;5039565;28;20008;-70
2022/04/09 04:47:25;;;;;;;;;;;4.80;99.90;;;;;;5049717;28;19948;-69
2022/04/09 04:49:53;;;;;;;;;;;4.80;99.90;;;;;;5049522;28;19942;-70
2022/04/09 04:52:20;;;;;;;;;;;4.70;99.90;;;;;;5050881;28;19959;-69
2022/04/09 04:54:46;;;;;;;;;;;4.70;99.90;;;;;;5050409;28;19947;-69
2022/04/09 04:57:13;;;;;;;;;;;4.60;99.90;;;;;;5049628;28;20662;-70
2022/04/09 04:59:40;;;;;;;;;;;4.60;99.90;;;;;;5055152;28;19942;-69
2022/04/09 05:02:06;;;;;;;;;;;4.60;99.90;;;;;;5053447;28;20047;-70
2022/04/09 05:04:33;;;;;;;;;;;4.60;99.90;;;;;;5047200;28;20557;-70
2022/04/09 05:07:01;;;;;;;;;;;4.60;99.90;;;;;;5048080;28;19945;-70
2022/04/09 05:09:28;;;;;;;;;;;4.60;99.90;;;;;;5048242;28;19950;-70
2022/04/09 05:11:54;;;;;;;;;;;4.50;99.90;;;;;;5046947;28;19963;-70
2022/04/09 05:14:21;;;;;;;;;;;4.60;99.90;;;;;;5041645;28;19954;-71
2022/04/09 05:16:48;;;;;;;;;;;4.60;99.90;;;;;;5046239;28;19959;-71
2022/04/09 05:19:14;;;;;;;;;;;4.50;99.90;;;;;;5046864;28;19980;-71
2022/04/09 05:21:42;;;;;;;;;;;4.50;99.90;;;;;;5044420;28;19972;-71
2022/04/09 05:24:10;;;;;;;;;;;4.50;99.90;;;;;;5042512;28;19955;-71
2022/04/09 05:26:37;;;;;;;;;;;4.50;99.90;;;;;;5048253;28;20033;-71
2022/04/09 05:29:03;;;;;;;;;;;4.50;99.90;;;;;;5046942;28;19953;-70
2022/04/09 05:31:30;;;;;;;;;;;4.60;99.90;;;;;;5047861;28;20501;-69
2022/04/09 05:33:56;;;;;;;;;;;4.70;99.90;;;;;;5048706;28;19946;-70
2022/04/09 05:36:23;;;;;;;;;;;4.70;99.90;;;;;;5048447;28;19944;-69
2022/04/09 05:38:50;;;;;;;;;;;4.70;99.90;;;;;;5047768;28;19950;-70
2022/04/09 05:41:18;;;;;;;;;;;4.70;99.90;;;;;;5049036;28;19964;-70
2022/04/09 05:43:44;;;;;;;;;;;4.70;99.90;;;;;;5053189;28;19953;-72
2022/04/09 05:46:11;;;;;;;;;;;4.70;99.90;;;;;;5052252;28;19997;-71
2022/04/09 05:48:38;;;;;;;;;;;4.60;99.90;;;;;;5050157;28;20049;-72
2022/04/09 05:51:04;;;;;;;;;;;4.50;99.90;;;;;;5058418;28;20018;-71
2022/04/09 05:53:30;;;;;;;;;;;4.50;99.90;;;;;;5048592;28;20018;-71
2022/04/09 05:55:57;;;;;;;;;;;4.50;99.90;;;;;;5049100;28;19939;-72
2022/04/09 05:58:25;;;;;;;;;;;4.60;99.90;;;;;;5050472;28;19946;-69
2022/04/09 06:00:51;;;;;;;;;;;4.60;99.90;;;;;;5051382;28;20355;-70
2022/04/09 06:03:18;;;;;;;;;;;4.70;99.90;;;;;;5061384;28;19999;-71
2022/04/09 06:05:44;;;;;;;;;;;4.60;99.90;;;;;;5051069;28;20025;-71
2022/04/09 06:08:11;;;;;;;;;;;4.60;99.90;;;;;;5048057;28;19949;-72
2022/04/09 06:10:37;;;;;;;;;;;4.50;99.90;;;;;;5051370;28;20382;-69
2022/04/09 06:13:04;;;;;;;;;;;4.50;99.90;;;;;;5061691;28;19946;-70
2022/04/09 06:15:32;;;;;;;;;;;4.50;99.90;;;;;;5062942;28;19943;-71
2022/04/09 06:18:04;;;;;;;;;;;4.50;99.90;;;;;;5053131;28;19964;-71
2022/04/09 06:20:31;;;;;;;;;;;4.60;99.90;;;;;;5038598;28;20397;-72
2022/04/09 06:22:59;;;;;;;;;;;4.60;99.90;;;;;;5056956;28;19943;-72
2022/04/09 06:25:26;;;;;;;;;;;4.60;99.90;;;;;;5059194;28;20556;-71
2022/04/09 06:27:52;;;;;;;;;;;4.70;99.90;;;;;;5059871;28;19948;-70
2022/04/09 06:30:19;;;;;;;;;;;4.80;99.90;;;;;;5054852;28;20245;-71
2022/04/09 06:32:48;;;;;;;;;;;4.80;99.90;;;;;;5056454;28;19942;-72
2022/04/09 06:35:14;;;;;;;;;;;4.90;99.90;;;;;;5052650;28;19938;-71
2022/04/09 06:37:41;;;;;;;;;;;4.90;99.90;;;;;;5050642;28;20461;-70
2022/04/09 06:40:09;;;;;;;;;;;5.00;99.90;;;;;;5052068;28;19948;-71
2022/04/09 06:42:36;;;;;;;;;;;5.10;99.90;;;;;;5052792;28;20469;-70
2022/04/09 06:45:02;;;;;;;;;;;5.20;99.90;;;;;;5039840;28;19962;-71
2022/04/09 06:47:29;;;;;;;;;;;5.20;99.90;;;;;;5048229;28;19947;-71
2022/04/09 06:49:58;;;;;;;;;;;5.30;99.90;;;;;;5043946;28;19966;-71
2022/04/09 06:52:25;;;;;;;;;;;5.30;99.90;;;;;;5040303;28;20460;-70
2022/04/09 06:54:55;;;;;;;;;;;5.40;99.90;;;;;;5050783;28;19937;-70
2022/04/09 06:57:22;;;;;;;;;;;5.50;99.90;;;;;;5042990;28;19948;-70
2022/04/09 06:59:48;;;;;;;;;;;5.60;99.90;;;;;;5050736;28;19950;-71
2022/04/09 07:02:15;;;;;;;;;;;5.60;99.90;;;;;;5045751;28;20027;-72
2022/04/09 07:04:41;;;;;;;;;;;5.70;99.90;;;;;;5050102;28;19951;-72
2022/04/09 07:07:09;;;;;;;;;;;5.80;99.90;;;;;;5047456;28;19952;-71
2022/04/09 07:09:36;;;;;;;;;;;5.90;99.90;;;;;;5042589;28;20046;-71
2022/04/09 07:12:02;;;;;;;;;;;6.10;99.90;;;;;;5051402;28;19964;-69
2022/04/09 07:14:29;;;;;;;;;;;6.20;99.90;;;;;;5059918;28;19950;-70
2022/04/09 07:16:58;;;;;;;;;;;6.20;99.90;;;;;;5061926;28;20371;-70
2022/04/09 07:19:25;;;;;;;;;;;6.40;99.90;;;;;;5051020;28;20000;-70
2022/04/09 07:21:51;;;;;;;;;;;6.60;99.90;;;;;;5050533;28;20013;-70
2022/04/09 07:24:19;;;;;;;;;;;6.70;99.90;;;;;;5051923;28;19941;-70
2022/04/09 07:26:46;;;;;;;;;;;6.90;99.90;;;;;;5053184;28;20330;-70
2022/04/09 07:29:12;;;;;;;;;;;7.20;99.90;;;;;;5051400;28;19997;-70
2022/04/09 07:31:39;;;;;;;;;;;7.30;99.90;;;;;;5055323;28;19964;-70
2022/04/09 07:34:05;;;;;;;;;;;7.40;99.90;;;;;;5055624;28;19942;-71
2022/04/09 07:36:32;;;;;;;;;;;7.50;99.90;;;;;;5051327;28;19943;-70
2022/04/09 07:38:58;;;;;;;;;;;7.60;99.90;;;;;;5051356;28;19963;-70
2022/04/09 07:41:26;;;;;;;;;;;7.80;99.90;;;;;;5050122;28;20507;-71
2022/04/09 07:43:53;;;;;;;;;;;8.00;99.90;;;;;;5053007;28;19946;-70
2022/04/09 07:46:20;;;;;;;;;;;8.00;99.90;;;;;;5050087;28;19961;-70
2022/04/09 07:48:47;;;;;;;;;;;7.90;99.90;;;;;;5056831;28;19972;-69
2022/04/09 07:51:13;;;;;;;;;;;7.90;99.90;;;;;;5049896;28;20045;-69
2022/04/09 07:53:40;;;;;;;;;;;7.90;99.90;;;;;;5050486;28;19949;-70
2022/04/09 07:56:06;;;;;;;;;;;8.10;99.90;;;;;;5050399;28;19940;-69
2022/04/09 07:58:34;;;;;;;;;;;8.20;99.90;;;;;;5050717;28;19946;-70
2022/04/09 08:01:01;;;;;;;;;;;8.20;99.90;;;;;;5055829;28;19964;-69
2022/04/09 08:03:27;;;;;;;;;;;8.30;99.90;;;;;;5064248;28;20031;-69
2022/04/09 08:05:54;;;;;;;;;;;8.40;99.90;;;;;;5050152;28;19988;-69
2022/04/09 08:08:20;;;;;;;;;;;8.70;99.90;;;;;;5055493;28;20027;-69
2022/04/09 08:10:47;;;;;;;;;;;8.70;99.90;;;;;;5043446;28;20537;-71
2022/04/09 08:13:14;;;;;;;;;;;8.70;99.90;;;;;;5049354;28;20037;-73
2022/04/09 08:15:42;;;;;;;;;;;8.60;99.90;;;;;;5045671;28;19947;-73
2022/04/09 08:18:09;;;;;;;;;;;8.70;99.90;;;;;;5043828;28;19994;-70
2022/04/09 08:20:36;;;;;;;;;;;8.70;99.90;;;;;;5044945;28;19944;-71
2022/04/09 08:23:03;;;;;;;;;;;8.50;99.90;;;;;;5045088;28;20367;-70
2022/04/09 08:25:30;;;;;;;;;;;8.40;99.90;;;;;;5048294;28;19954;-70
2022/04/09 08:27:56;;;;;;;;;;;8.30;99.90;;;;;;5048153;28;19953;-71
2022/04/09 08:30:23;;;;;;;;;;;8.40;99.90;;;;;;5040472;28;19953;-70
2022/04/09 08:32:52;;;;;;;;;;;8.60;99.90;;;;;;5043189;28;20505;-72
2022/04/09 08:35:19;;;;;;;;;;;8.80;99.90;;;;;;5049033;28;19945;-71
2022/04/09 08:37:51;;;;;;;;;;;9.00;99.90;;;;;;5048579;28;20062;-70
2022/04/09 08:40:18;;;;;;;;;;;9.00;99.90;;;;;;5038582;28;19952;-70
2022/04/09 08:42:45;;;;;;;;;;;8.80;99.90;;;;;;5047023;28;19949;-70
2022/04/09 08:45:11;;;;;;;;;;;8.80;99.90;;;;;;5044208;28;19951;-70
2022/04/09 08:47:39;;;;;;;;;;;8.90;99.90;;;;;;5045238;28;20048;-71
2022/04/09 08:50:09;;;;;;;;;;;9.00;99.90;;;;;;5048375;28;20026;-70
2022/04/09 08:52:38;;;;;;;;;;;9.10;99.90;;;;;;5049352;28;20064;-72
2022/04/09 08:55:05;;;;;;;;;;;9.30;99.90;;;;;;5043806;28;20025;-72
2022/04/09 08:57:33;;;;;;;;;;;9.20;99.90;;;;;;5048444;28;19954;-71
2022/04/09 08:59:59;;;;;;;;;;;9.20;99.90;;;;;;5039489;28;19992;-72
2022/04/09 09:02:28;;;;;;;;;;;9.40;99.90;;;;;;5047257;28;19962;-72
2022/04/09 09:04:55;;;;;;;;;;;9.40;99.90;;;;;;5045686;28;20411;-71
2022/04/09 09:07:24;;;;;;;;;;;9.40;99.90;;;;;;5047905;28;19969;-67
2022/04/09 09:09:51;;;;;;;;;;;9.80;99.90;;;;;;5047937;28;19984;-65
2022/04/09 09:12:26;;;;;;;;;;;10.20;99.90;;;;;;5041569;28;19961;-65
2022/04/09 09:14:53;;;;;;;;;;;10.50;99.90;;;;;;5039873;28;19946;-66
2022/04/09 09:17:26;;;;;;;;;;;10.70;99.90;;;;;;5045257;28;19944;-63
2022/04/09 09:19:53;;;;;;;;;;;10.70;99.90;;;;;;5039707;28;20415;-67
2022/04/09 09:22:19;;;;;;;;;;;10.90;99.90;;;;;;5044195;28;20060;-70
2022/04/09 09:25:01;;;;;;;;;;;11.00;99.90;;;;;;5054218;28;20481;-71
2022/04/09 09:27:28;;;;;;;;;;;10.90;99.90;;;;;;5047088;28;20321;-72
2022/04/09 09:29:55;;;;;;;;;;;10.90;99.90;;;;;;5051758;28;19991;-72
2022/04/09 09:32:24;;;;;;;;;;;10.90;99.90;;;;;;5052353;28;19965;-71
2022/04/09 09:34:53;;;;;;;;;;;11.20;99.90;;;;;;5050606;28;19982;-71
2022/04/09 09:37:21;;;;;;;;;;;11.50;99.90;;;;;;5048761;28;19961;-71
2022/04/09 09:39:48;;;;;;;;;;;11.60;99.90;;;;;;5048634;28;19939;-71
2022/04/09 09:42:18;;;;;;;;;;;11.40;99.90;;;;;;5048449;28;20009;-71
2022/04/09 09:44:45;;;;;;;;;;;11.40;99.90;;;;;;5049408;28;19950;-71
2022/04/09 09:47:12;;;;;;;;;;;11.00;99.90;;;;;;5056347;28;20014;-71
2022/04/09 09:49:50;;;;;;;;;;;10.70;99.90;;;;;;5066752;28;20060;-73
2022/04/09 09:52:16;;;;;;;;;;;10.50;99.90;;;;;;5052552;28;19966;-72
2022/04/09 09:54:55;;;;;;;;;;;10.30;99.90;;;;;;5053086;28;19955;-70
2022/04/09 09:57:22;;;;;;;;;;;10.20;99.90;;;;;;5053017;28;19951;-71
2022/04/09 09:59:50;;;;;;;;;;;10.20;99.90;;;;;;5052480;28;19954;-71
2022/04/09 10:02:20;;;;;;;;;;;10.30;99.90;;;;;;5056573;28;20052;-71
2022/04/09 10:04:47;;;;;;;;;;;10.40;99.90;;;;;;5061328;28;19949;-70
2022/04/09 10:07:14;;;;;;;;;;;10.70;99.90;;;;;;5052538;28;20057;-71
2022/04/09 10:09:41;;;;;;;;;;;10.70;99.90;;;;;;5052508;28;20416;-71
2022/04/09 10:12:11;;;;;;;;;;;10.90;99.90;;;;;;5051336;28;20447;-70
2022/04/09 10:14:40;;;;;;;;;;;11.10;99.90;;;;;;5052455;28;20039;-71
2022/04/09 10:17:07;;;;;;;;;;;11.30;99.90;;;;;;5050310;28;19947;-71
2022/04/09 10:19:35;;;;;;;;;;;11.80;99.90;;;;;;5053411;28;19950;-72
2022/04/09 10:22:02;;;;;;;;;;;11.90;99.90;;;;;;5056703;28;20000;-71
2022/04/09 10:24:29;;;;;;;;;;;11.70;99.90;;;;;;5053181;28;20001;-71
2022/04/09 10:26:56;;;;;;;;;;;11.70;99.90;;;;;;5054636;28;19969;-70
2022/04/09 10:29:24;;;;;;;;;;;11.60;99.90;;;;;;5054979;28;19949;-70
2022/04/09 10:31:52;;;;;;;;;;;11.40;99.90;;;;;;5087031;22;19962;-70
2022/04/09 10:34:20;;;;;;;;;;;11.40;99.90;;;;;;5085901;28;19981;-68
2022/04/09 10:37:09;;;;;;;;;;;11.50;99.90;;;;;;5087060;28;20371;-68
2022/04/09 10:39:46;;;;;;;;;;;11.50;99.90;;;;;;5085857;28;19943;-70
2022/04/09 10:42:28;;;;;;;;;;;11.10;99.90;;;;;;5089038;28;20113;-71
2022/04/09 10:44:56;;;;;;;;;;;10.80;99.90;;;;;;5075359;28;19953;-70
2022/04/09 10:47:22;;;;;;;;;;;10.90;99.90;;;;;;5083127;28;20102;-71
2022/04/09 10:50:08;;;;;;;;;;;11.10;99.90;;;;;;5084658;28;20008;-68
2022/04/09 10:52:34;;;;;;;;;;;11.30;99.90;;;;;;5082346;28;20078;-69
2022/04/09 10:55:04;;;;;;;;;;;11.70;99.90;;;;;;5085665;28;20036;-68
2022/04/09 10:57:41;;;;;;;;;;;12.00;99.90;;;;;;5076371;28;19950;-68
2022/04/09 11:00:28;;;;;;;;;;;12.20;99.90;;;;;;5087235;28;19949;-70
2022/04/09 11:03:04;;;;;;;;;;;12.30;99.90;;;;;;5084141;28;19974;-68
2022/04/09 11:05:30;;;;;;;;;;;12.40;99.90;;;;;;5077256;28;19956;-68
2022/04/09 11:08:07;;;;;;;;;;;12.40;99.90;;;;;;5084258;28;20059;-69
2022/04/09 11:10:33;;;;;;;;;;;12.40;99.90;;;;;;5086428;28;20097;-70
2022/04/09 11:13:00;;;;;;;;;;;12.50;99.90;;;;;;5076248;28;20015;-70
2022/04/09 11:15:28;;;;;;;;;;;12.40;99.90;;;;;;5087609;28;19951;-69
2022/04/09 11:17:59;;;;;;;;;;;12.70;99.90;;;;;;5085506;28;19957;-70
2022/04/09 11:20:30;;;;;;;;;;;13.20;99.90;;;;;;5082178;28;19953;-69
2022/04/09 11:22:56;;;;;;;;;;;13.10;99.00;;;;;;5085748;28;20006;-70
2022/04/09 11:25:24;;;;;;;;;;;13.40;99.90;;;;;;5090417;28;20018;-69
2022/04/09 11:27:51;;;;;;;;;;;13.90;99.90;;;;;;5083664;28;19957;-69
2022/04/09 11:30:18;;;;;;;;;;;14.10;99.90;;;;;;5084983;28;19954;-71
2022/04/09 11:32:47;;;;;;;;;;;14.40;99.90;;;;;;5083920;28;20013;-71
2022/04/09 11:35:16;;;;;;;;;;;15.10;99.30;;;;;;5082526;28;19949;-72
2022/04/09 11:37:43;;;;;;;;;;;15.40;97.90;;;;;;5085125;28;19939;-73
2022/04/09 11:40:11;;;;;;;;;;;15.70;96.60;;;;;;5078058;28;19948;-70
2022/04/09 11:42:47;;;;;;;;;;;15.90;95.20;;;;;;5085422;28;19963;-70
2022/04/09 11:45:18;;;;;;;;;;;16.50;95.90;;;;;;5087761;28;19938;-69
2022/04/09 11:47:45;;;;;;;;;;;17.80;95.00;;;;;;5087900;28;20054;-72
2022/04/09 11:50:13;;;;;;;;;;;17.10;93.70;;;;;;5088309;28;19974;-71
2022/04/09 11:52:40;;;;;;;;;;;16.10;96.10;;;;;;5088128;28;19964;-71
2022/04/09 11:55:10;;;;;;;;;;;15.10;93.80;;;;;;5087909;28;20554;-71
2022/04/09 11:57:37;;;;;;;;;;;14.20;91.00;;;;;;5091445;28;20045;-70
2022/04/09 12:00:06;;;;;;;;;;;13.40;90.60;;;;;;5082751;28;20002;-71
2022/04/09 12:02:33;;;;;;;;;;;12.90;92.60;;;;;;5082010;28;20003;-72
2022/04/09 12:05:00;;;;;;;;;;;12.80;95.50;;;;;;5091818;28;20003;-71
2022/04/09 12:07:28;;;;;;;;;;;12.30;95.80;;;;;;5086827;28;19972;-71
2022/04/09 12:09:55;;;;;;;;;;;11.40;97.40;;;;;;5083064;28;19949;-72
2022/04/09 12:12:22;;;;;;;;;;;10.80;99.00;;;;;;5083557;28;19972;-72
2022/04/09 12:14:52;;;;;;;;;;;10.30;99.90;;;;;;5085451;28;19954;-70
2022/04/09 12:17:22;;;;;;;;;;;10.10;99.90;;;;;;5078502;28;19957;-71
2022/04/09 12:19:49;;;;;;;;;;;10.10;99.90;;;;;;5086219;28;19948;-70
2022/04/09 12:22:19;;;;;;;;;;;11.70;99.90;;;;;;5084146;28;19959;-71
2022/04/09 12:24:52;;;;;;;;;;;14.30;99.50;;;;;;5081558;28;19950;-70
2022/04/09 12:27:19;;;;;;;;;;;16.90;96.90;;;;;;5087635;28;19987;-69
2022/04/09 12:29:53;;;;;;;;;;;18.50;95.30;;;;;;5075197;28;19944;-70
2022/04/09 12:32:23;;;;;;;;;;;19.80;92.40;;;;;;5079876;28;19971;-72
2022/04/09 12:34:57;;;;;;;;;;;20.50;90.20;;;;;;5076368;28;19964;-72
2022/04/09 12:37:24;;;;;;;;;;;20.90;88.30;;;;;;5076780;28;20007;-71
2022/04/09 12:39:52;;;;;;;;;;;21.30;86.20;;;;;;5080935;28;19945;-72
2022/04/09 12:42:29;;;;;;;;;;;19.70;83.20;;;;;;5080129;28;19979;-71
2022/04/09 12:45:08;;;;;;;;;;;17.40;81.70;;;;;;5078726;28;20315;-69
2022/04/09 12:47:35;;;;;;;;;;;15.30;83.80;;;;;;5083734;28;19969;-71
2022/04/09 12:50:01;;;;;;;;;;;14.80;87.60;;;;;;5082062;28;19943;-71
2022/04/09 12:52:30;;;;;;;;;;;15.10;89.10;;;;;;5084572;28;19980;-71
2022/04/09 12:54:59;;;;;;;;;;;15.10;89.40;;;;;;5082734;28;19943;-71
2022/04/09 12:57:25;;;;;;;;;;;15.70;87.50;;;;;;5085704;28;19950;-69
2022/04/09 12:59:52;;;;;;;;;;;16.80;87.80;;;;;;5080183;28;20568;-69
2022/04/09 13:02:19;;;;;;;;;;;17.20;84.50;;;;;;5085371;28;20081;-69
2022/04/09 13:04:45;;;;;;;;;;;17.70;84.50;;;;;;5078963;28;20015;-69
2022/04/09 13:07:12;;;;;;;;;;;19.10;84.00;;;;;;5084327;28;19976;-69
2022/04/09 13:09:38;;;;;;;;;;;20.30;81.90;;;;;;5075039;28;19947;-70
2022/04/09 13:12:07;;;;;;;;;;;20.60;77.90;;;;;;5079776;28;19962;-71
2022/04/09 13:14:34;;;;;;;;;;;20.30;76.70;;;;;;5080115;28;20383;-70
2022/04/09 13:17:00;;;;;;;;;;;19.60;76.50;;;;;;5077686;28;19949;-69
2022/04/09 13:19:29;;;;;;;;;;;18.80;76.60;;;;;;5081215;28;20075;-70
2022/04/09 13:21:55;;;;;;;;;;;17.50;81.70;;;;;;5075261;28;19966;-70
2022/04/09 13:24:22;;;;;;;;;;;16.00;80.30;;;;;;5071190;28;19950;-69
2022/04/09 13:26:48;;;;;;;;;;;15.50;82.70;;;;;;5080735;28;20000;-71
2022/04/09 13:29:16;;;;;;;;;;;15.00;83.60;;;;;;5085274;28;20001;-71
2022/04/09 13:31:43;;;;;;;;;;;14.20;85.00;;;;;;5084465;28;20582;-69
2022/04/09 13:34:14;;;;;;;;;;;13.30;84.80;;;;;;5085254;28;20341;-71
2022/04/09 13:36:41;;;;;;;;;;;12.40;95.10;;;;;;5085347;28;20047;-69
2022/04/09 13:39:09;;;;;;;;;;;11.30;97.50;;;;;;5079676;28;19941;-69
2022/04/09 13:41:36;;;;;;;;;;;10.60;98.50;;;;;;5083512;28;19954;-70
2022/04/09 13:44:02;;;;;;;;;;;10.90;99.30;;;;;;5084418;28;19957;-69
2022/04/09 13:46:30;;;;;;;;;;;13.30;98.60;;;;;;5084598;28;19956;-70
2022/04/09 13:48:57;;;;;;;;;;;15.90;92.70;;;;;;5079464;28;19959;-70
2022/04/09 13:51:23;;;;;;;;;;;16.80;90.30;;;;;;5085976;28;19962;-69
2022/04/09 13:53:50;;;;;;;;;;;17.40;86.20;;;;;;5095107;28;19991;-71
2022/04/09 13:56:16;;;;;;;;;;;17.50;83.10;;;;;;5087186;28;19935;-70
2022/04/09 13:58:43;;;;;;;;;;;16.30;80.40;;;;;;5078171;28;20485;-71
2022/04/09 14:01:10;;;;;;;;;;;15.00;80.30;;;;;;5081055;28;20044;-68
2022/04/09 14:03:38;;;;;;;;;;;14.90;80.40;;;;;;5072440;28;19943;-69
2022/04/09 14:06:04;;;;;;;;;;;15.30;77.70;;;;;;5075496;28;19958;-70
2022/04/09 14:08:31;;;;;;;;;;;16.40;82.00;;;;;;5084737;28;20064;-70
2022/04/09 14:10:58;;;;;;;;;;;17.00;78.50;;;;;;5080954;28;20017;-68
2022/04/09 14:13:24;;;;;;;;;;;15.90;75.80;;;;;;5082439;28;19948;-70
2022/04/09 14:15:51;;;;;;;;;;;14.80;75.10;;;;;;5078368;28;19946;-70
2022/04/09 14:18:17;;;;;;;;;;;14.10;76.10;;;;;;5082138;28;19943;-69
2022/04/09 14:20:45;;;;;;;;;;;13.60;79.80;;;;;;5082978;28;19973;-70
2022/04/09 14:23:12;;;;;;;;;;;13.10;76.20;;;;;;5080204;28;20024;-69
2022/04/09 14:25:38;;;;;;;;;;;12.70;75.50;;;;;;5077154;28;20384;-70
2022/04/09 14:28:08;;;;;;;;;;;13.30;75.40;;;;;;5088083;28;20215;-68